Terminal Aerodrome Forecast
Issued by NWS Tuscon, AZ

Home | Current Version | Previous Version | Text Only | Print | Product List | Glossary On
Versions: 1 2 3 4 5 6 7 8 9 10 11 12
000
FTUS45 KTWC 251120
TAFTUS
TAF
KTUS 251120Z 2512/2612 17006KT P6SM SKC
     FM251500 VRB04KT P6SM SKC
     FM252000 29010KT P6SM FEW110
     FM260200 24005KT P6SM SCT250
     FM260700 14007KT P6SM BKN250=

USA.gov is the U.S. government's official web portal to all federal, state and local government web resources and services.